sensor_id;sensor_type;location;lat;lon;timestamp;pressure;altitude;pressure_sealevel;temperature;humidity
73564;BME280;61834;50.196;6.454;2022-09-27T00:01:06;94556.75;;;15.52;55.75
73564;BME280;61834;50.196;6.454;2022-09-27T00:03:32;94565.78;;;15.53;55.73
73564;BME280;61834;50.196;6.454;2022-09-27T00:08:31;94554.75;;;15.53;55.81
73564;BME280;61834;50.196;6.454;2022-09-27T00:10:59;94561.50;;;15.52;55.72
73564;BME280;61834;50.196;6.454;2022-09-27T00:13:24;94563.03;;;15.53;55.67
73564;BME280;61834;50.196;6.454;2022-09-27T00:15:58;94569.78;;;15.52;55.60
73564;BME280;61834;50.196;6.454;2022-09-27T00:18:23;94571.78;;;15.51;55.75
73564;BME280;61834;50.196;6.454;2022-09-27T00:20:49;94578.81;;;15.52;55.63
73564;BME280;61834;50.196;6.454;2022-09-27T00:23:14;94582.81;;;15.51;55.85
73564;BME280;61834;50.196;6.454;2022-09-27T00:25:39;94580.03;;;15.51;55.80
73564;BME280;61834;50.196;6.454;2022-09-27T00:28:06;94591.06;;;15.51;55.83
73564;BME280;61834;50.196;6.454;2022-09-27T00:30:31;94583.56;;;15.52;55.80
73564;BME280;61834;50.196;6.454;2022-09-27T00:32:56;94593.06;;;15.51;55.71
73564;BME280;61834;50.196;6.454;2022-09-27T00:35:22;94598.56;;;15.51;55.71
73564;BME280;61834;50.196;6.454;2022-09-27T00:37:47;94588.31;;;15.51;55.75
73564;BME280;61834;50.196;6.454;2022-09-27T00:40:14;94591.53;;;15.50;55.82
73564;BME280;61834;50.196;6.454;2022-09-27T00:42:39;94602.56;;;15.50;55.67
73564;BME280;61834;50.196;6.454;2022-09-27T00:45:11;94596.28;;;15.49;55.78
73564;BME280;61834;50.196;6.454;2022-09-27T00:47:53;94592.00;;;15.48;55.77
73564;BME280;61834;50.196;6.454;2022-09-27T00:50:24;94592.78;;;15.49;55.83
73564;BME280;61834;50.196;6.454;2022-09-27T00:53:03;94597.50;;;15.48;55.75
73564;BME280;61834;50.196;6.454;2022-09-27T00:55:38;94595.53;;;15.49;55.58
73564;BME280;61834;50.196;6.454;2022-09-27T00:58:05;94602.25;;;15.48;55.71
73564;BME280;61834;50.196;6.454;2022-09-27T01:00:31;94606.56;;;15.49;55.83
73564;BME280;61834;50.196;6.454;2022-09-27T01:02:57;94606.56;;;15.49;55.80
73564;BME280;61834;50.196;6.454;2022-09-27T01:05:25;94610.53;;;15.48;55.73
73564;BME280;61834;50.196;6.454;2022-09-27T01:07:51;94605.78;;;15.48;55.72
73564;BME280;61834;50.196;6.454;2022-09-27T01:10:22;94603.81;;;15.49;55.74
73564;BME280;61834;50.196;6.454;2022-09-27T01:13:06;94600.25;;;15.48;56.26
73564;BME280;61834;50.196;6.454;2022-09-27T01:33:39;94605.47;;;15.46;55.76
73564;BME280;61834;50.196;6.454;2022-09-27T01:36:17;94606.25;;;15.47;55.66
73564;BME280;61834;50.196;6.454;2022-09-27T01:42:14;94609.47;;;15.45;55.77
73564;BME280;61834;50.196;6.454;2022-09-27T01:44:53;94605.94;;;15.45;55.75
73564;BME280;61834;50.196;6.454;2022-09-27T01:47:32;94611.75;;;15.47;55.78
73564;BME280;61834;50.196;6.454;2022-09-27T01:50:28;94610.66;;;15.44;55.82
73564;BME280;61834;50.196;6.454;2022-09-27T01:53:02;94615.44;;;15.44;55.81
73564;BME280;61834;50.196;6.454;2022-09-27T01:55:38;94615.44;;;15.44;55.77
73564;BME280;61834;50.196;6.454;2022-09-27T02:00:53;94616.63;;;15.43;55.75
73564;BME280;61834;50.196;6.454;2022-09-27T02:03:29;94619.41;;;15.43;55.93
73564;BME280;61834;50.196;6.454;2022-09-27T02:06:21;94616.19;;;15.44;55.83
73564;BME280;61834;50.196;6.454;2022-09-27T02:09:11;94623.69;;;15.44;55.83
73564;BME280;61834;50.196;6.454;2022-09-27T02:12:00;94622.47;;;15.45;55.71
73564;BME280;61834;50.196;6.454;2022-09-27T02:17:24;94631.97;;;15.44;55.74
73564;BME280;61834;50.196;6.454;2022-09-27T02:19:54;94635.19;;;15.42;55.70
73564;BME280;61834;50.196;6.454;2022-09-27T02:25:25;94633.97;;;15.43;55.73
73564;BME280;61834;50.196;6.454;2022-09-27T02:28:24;94637.94;;;15.42;55.85
73564;BME280;61834;50.196;6.454;2022-09-27T02:30:53;94641.91;;;15.41;55.95
73564;BME280;61834;50.196;6.454;2022-09-27T02:33:26;94647.44;;;15.41;55.90
73564;BME280;61834;50.196;6.454;2022-09-27T02:35:53;94646.22;;;15.42;55.83
73564;BME280;61834;50.196;6.454;2022-09-27T02:38:19;94645.44;;;15.42;55.76
73564;BME280;61834;50.196;6.454;2022-09-27T02:40:45;94647.44;;;15.41;55.91
73564;BME280;61834;50.196;6.454;2022-09-27T02:43:12;94650.19;;;15.41;55.98
73564;BME280;61834;50.196;6.454;2022-09-27T02:48:46;94647.44;;;15.41;55.71
73564;BME280;61834;50.196;6.454;2022-09-27T02:54:18;94657.69;;;15.41;55.76
73564;BME280;61834;50.196;6.454;2022-09-27T02:57:29;94664.44;;;15.40;55.88
73564;BME280;61834;50.196;6.454;2022-09-27T03:00:18;94666.41;;;15.39;55.90
73564;BME280;61834;50.196;6.454;2022-09-27T03:06:08;94673.59;;;15.37;55.79
73564;BME280;61834;50.196;6.454;2022-09-27T03:08:36;94674.78;;;15.36;55.90
73564;BME280;61834;50.196;6.454;2022-09-27T03:11:03;94676.81;;;15.35;55.88
73564;BME280;61834;50.196;6.454;2022-09-27T03:13:29;94674.78;;;15.36;55.84
73564;BME280;61834;50.196;6.454;2022-09-27T03:15:56;94682.31;;;15.35;55.85
73564;BME280;61834;50.196;6.454;2022-09-27T03:18:41;94689.81;;;15.35;55.83
73564;BME280;61834;50.196;6.454;2022-09-27T03:21:41;94687.81;;;15.35;55.92
73564;BME280;61834;50.196;6.454;2022-09-27T03:24:08;94684.28;;;15.35;55.74
73564;BME280;61834;50.196;6.454;2022-09-27T03:26:33;94689.03;;;15.34;55.81
73564;BME280;61834;50.196;6.454;2022-09-27T03:28:58;94692.56;;;15.35;55.72
73564;BME280;61834;50.196;6.454;2022-09-27T03:31:24;94690.59;;;15.35;55.81
73564;BME280;61834;50.196;6.454;2022-09-27T03:34:08;94692.09;;;15.36;55.82
73564;BME280;61834;50.196;6.454;2022-09-27T03:36:33;94700.38;;;15.36;55.79
73564;BME280;61834;50.196;6.454;2022-09-27T03:38:59;94699.59;;;15.36;55.87
73564;BME280;61834;50.196;6.454;2022-09-27T03:41:24;94696.84;;;15.36;55.47
73564;BME280;61834;50.196;6.454;2022-09-27T03:43:50;94696.09;;;15.35;55.84
73564;BME280;61834;50.196;6.454;2022-09-27T03:46:15;94705.91;;;15.36;55.83
73564;BME280;61834;50.196;6.454;2022-09-27T03:48:41;94700.38;;;15.36;55.73
73564;BME280;61834;50.196;6.454;2022-09-27T03:51:07;94693.34;;;15.35;55.83
73564;BME280;61834;50.196;6.454;2022-09-27T03:53:33;94694.88;;;15.36;55.83
73564;BME280;61834;50.196;6.454;2022-09-27T03:55:59;94693.34;;;15.35;55.72
73564;BME280;61834;50.196;6.454;2022-09-27T03:58:25;94694.09;;;15.36;55.77
73564;BME280;61834;50.196;6.454;2022-09-27T04:00:50;94696.84;;;15.36;55.74
73564;BME280;61834;50.196;6.454;2022-09-27T04:03:16;94704.38;;;15.35;55.72
73564;BME280;61834;50.196;6.454;2022-09-27T04:06:02;94700.84;;;15.35;55.85
73564;BME280;61834;50.196;6.454;2022-09-27T04:08:35;94704.38;;;15.35;55.72
73564;BME280;61834;50.196;6.454;2022-09-27T04:11:01;94709.09;;;15.35;55.74
73564;BME280;61834;50.196;6.454;2022-09-27T04:13:28;94711.88;;;15.35;55.85
73564;BME280;61834;50.196;6.454;2022-09-27T04:15:55;94717.38;;;15.35;56.15
73564;BME280;61834;50.196;6.454;2022-09-27T04:18:40;94721.38;;;15.34;55.89
73564;BME280;61834;50.196;6.454;2022-09-27T04:21:24;94716.59;;;15.34;55.97
73564;BME280;61834;50.196;6.454;2022-09-27T04:23:51;94706.81;;;15.33;55.92
73564;BME280;61834;50.196;6.454;2022-09-27T04:26:19;94715.06;;;15.33;55.87
73564;BME280;61834;50.196;6.454;2022-09-27T04:28:51;94722.88;;;15.35;55.87
73564;BME280;61834;50.196;6.454;2022-09-27T04:31:18;94715.84;;;15.34;55.98
73564;BME280;61834;50.196;6.454;2022-09-27T04:33:50;94720.59;;;15.33;55.94
73564;BME280;61834;50.196;6.454;2022-09-27T04:36:22;94731.63;;;15.33;55.89
73564;BME280;61834;50.196;6.454;2022-09-27T04:39:02;94723.34;;;15.33;55.78
73564;BME280;61834;50.196;6.454;2022-09-27T04:41:28;94726.09;;;15.33;55.83
73564;BME280;61834;50.196;6.454;2022-09-27T04:43:55;94728.88;;;15.33;55.83
73564;BME280;61834;50.196;6.454;2022-09-27T04:46:21;94719.34;;;15.34;55.81
73564;BME280;61834;50.196;6.454;2022-09-27T04:48:47;94730.84;;;15.33;55.68
73564;BME280;61834;50.196;6.454;2022-09-27T04:51:13;94735.16;;;15.34;55.87
73564;BME280;61834;50.196;6.454;2022-09-27T04:53:41;94734.38;;;15.33;55.70
73564;BME280;61834;50.196;6.454;2022-09-27T04:56:07;94736.34;;;15.33;55.79
73564;BME280;61834;50.196;6.454;2022-09-27T04:58:33;94737.13;;;15.33;55.82
73564;BME280;61834;50.196;6.454;2022-09-27T05:00:59;94742.66;;;15.33;55.67
73564;BME280;61834;50.196;6.454;2022-09-27T05:03:48;94730.84;;;15.33;55.65
73564;BME280;61834;50.196;6.454;2022-09-27T05:06:14;94737.13;;;15.33;55.70
73564;BME280;61834;50.196;6.454;2022-09-27T05:08:40;94740.34;;;15.32;55.74
73564;BME280;61834;50.196;6.454;2022-09-27T05:11:18;94742.66;;;15.33;55.70
73564;BME280;61834;50.196;6.454;2022-09-27T05:14:03;94741.88;;;15.33;55.69
73564;BME280;61834;50.196;6.454;2022-09-27T05:16:32;94737.59;;;15.32;55.75
73564;BME280;61834;50.196;6.454;2022-09-27T05:19:16;94745.84;;;15.32;55.94
73564;BME280;61834;50.196;6.454;2022-09-27T05:22:05;94743.09;;;15.32;55.79
73564;BME280;61834;50.196;6.454;2022-09-27T05:24:31;94745.84;;;15.32;55.78
73564;BME280;61834;50.196;6.454;2022-09-27T05:26:58;94752.16;;;15.32;55.79
73564;BME280;61834;50.196;6.454;2022-09-27T05:29:23;94749.69;;;15.34;55.90
73564;BME280;61834;50.196;6.454;2022-09-27T05:32:03;94751.38;;;15.32;55.88
73564;BME280;61834;50.196;6.454;2022-09-27T05:34:28;94753.34;;;15.31;55.79
73564;BME280;61834;50.196;6.454;2022-09-27T05:36:57;94760.41;;;15.32;55.70
73564;BME280;61834;50.196;6.454;2022-09-27T05:39:25;94758.41;;;15.33;55.69
73564;BME280;61834;50.196;6.454;2022-09-27T05:41:51;94756.88;;;15.32;55.71
73564;BME280;61834;50.196;6.454;2022-09-27T05:44:18;94761.63;;;15.31;55.89
73564;BME280;61834;50.196;6.454;2022-09-27T05:46:53;94760.41;;;15.32;55.65
73564;BME280;61834;50.196;6.454;2022-09-27T05:49:18;94763.94;;;15.33;55.69
73564;BME280;61834;50.196;6.454;2022-09-27T05:51:44;94761.63;;;15.31;55.61
73564;BME280;61834;50.196;6.454;2022-09-27T05:54:10;94764.38;;;15.31;55.78
73564;BME280;61834;50.196;6.454;2022-09-27T05:56:36;94767.13;;;15.31;55.84
73564;BME280;61834;50.196;6.454;2022-09-27T05:59:18;94770.69;;;15.32;55.76
73564;BME280;61834;50.196;6.454;2022-09-27T06:02:10;94768.69;;;15.32;55.89
73564;BME280;61834;50.196;6.454;2022-09-27T06:05:08;94771.88;;;15.31;55.77
73564;BME280;61834;50.196;6.454;2022-09-27T06:08:10;94771.88;;;15.31;55.78
73564;BME280;61834;50.196;6.454;2022-09-27T06:10:42;94773.88;;;15.30;55.71
73564;BME280;61834;50.196;6.454;2022-09-27T06:13:11;94775.41;;;15.31;55.73
73564;BME280;61834;50.196;6.454;2022-09-27T06:15:41;94785.66;;;15.31;55.76
73564;BME280;61834;50.196;6.454;2022-09-27T06:18:09;94778.16;;;15.31;55.72
73564;BME280;61834;50.196;6.454;2022-09-27T06:20:36;94788.41;;;15.31;55.80
73564;BME280;61834;50.196;6.454;2022-09-27T06:23:17;94779.41;;;15.30;55.69
73564;BME280;61834;50.196;6.454;2022-09-27T06:25:43;94785.66;;;15.31;55.68
73564;BME280;61834;50.196;6.454;2022-09-27T06:28:30;94780.16;;;15.31;55.77
73564;BME280;61834;50.196;6.454;2022-09-27T06:30:56;94780.91;;;15.31;55.70
73564;BME280;61834;50.196;6.454;2022-09-27T06:33:34;94776.63;;;15.30;55.73
73564;BME280;61834;50.196;6.454;2022-09-27T06:36:03;94791.19;;;15.31;55.72
73564;BME280;61834;50.196;6.454;2022-09-27T06:38:29;94792.41;;;15.30;55.78
73564;BME280;61834;50.196;6.454;2022-09-27T06:41:16;94787.66;;;15.30;55.77
73564;BME280;61834;50.196;6.454;2022-09-27T06:44:00;94786.88;;;15.30;55.86
73564;BME280;61834;50.196;6.454;2022-09-27T06:46:44;94786.44;;;15.31;55.71
73564;BME280;61834;50.196;6.454;2022-09-27T06:49:09;94782.16;;;15.30;55.63
73564;BME280;61834;50.196;6.454;2022-09-27T06:51:35;94773.09;;;15.30;55.78
73564;BME280;61834;50.196;6.454;2022-09-27T06:54:00;94782.16;;;15.30;55.80
73564;BME280;61834;50.196;6.454;2022-09-27T06:56:26;94785.66;;;15.31;55.76
73564;BME280;61834;50.196;6.454;2022-09-27T06:58:52;94780.16;;;15.31;55.61
73564;BME280;61834;50.196;6.454;2022-09-27T07:01:43;94778.63;;;15.30;55.80
73564;BME280;61834;50.196;6.454;2022-09-27T07:04:27;94782.16;;;15.30;55.84
73564;BME280;61834;50.196;6.454;2022-09-27T07:07:06;94782.91;;;15.31;55.73
73564;BME280;61834;50.196;6.454;2022-09-27T07:09:37;94791.19;;;15.31;55.68
73564;BME280;61834;50.196;6.454;2022-09-27T07:12:04;94788.41;;;15.31;55.72
73564;BME280;61834;50.196;6.454;2022-09-27T07:14:30;94796.25;;;15.32;55.72
73564;BME280;61834;50.196;6.454;2022-09-27T07:16:58;94789.97;;;15.32;55.83
73564;BME280;61834;50.196;6.454;2022-09-27T07:19:24;94798.25;;;15.32;55.72
73564;BME280;61834;50.196;6.454;2022-09-27T07:21:50;94797.47;;;15.31;55.68
73564;BME280;61834;50.196;6.454;2022-09-27T07:24:16;94801.78;;;15.32;55.78
73564;BME280;61834;50.196;6.454;2022-09-27T07:26:42;94797.47;;;15.31;55.66
73564;BME280;61834;50.196;6.454;2022-09-27T07:29:09;94794.56;;;15.35;55.90
73564;BME280;61834;50.196;6.454;2022-09-27T07:31:35;94801.50;;;15.39;56.01
73564;BME280;61834;50.196;6.454;2022-09-27T07:34:02;94806.25;;;15.39;56.01
73564;BME280;61834;50.196;6.454;2022-09-27T07:36:28;94807.13;;;15.36;55.88
73564;BME280;61834;50.196;6.454;2022-09-27T07:38:58;94806.38;;;15.35;55.84
73564;BME280;61834;50.196;6.454;2022-09-27T07:41:23;94802.84;;;15.35;55.95
73564;BME280;61834;50.196;6.454;2022-09-27T07:43:49;94811.91;;;15.35;55.82
73564;BME280;61834;50.196;6.454;2022-09-27T07:46:14;94813.88;;;15.35;55.86
73564;BME280;61834;50.196;6.454;2022-09-27T07:48:53;94808.81;;;15.33;55.79
73564;BME280;61834;50.196;6.454;2022-09-27T07:51:43;94808.81;;;15.33;55.78
73564;BME280;61834;50.196;6.454;2022-09-27T07:54:25;94817.88;;;15.34;55.62
73564;BME280;61834;50.196;6.454;2022-09-27T07:57:13;94816.31;;;15.33;55.77
73564;BME280;61834;50.196;6.454;2022-09-27T07:59:46;94819.06;;;15.33;55.85
73564;BME280;61834;50.196;6.454;2022-09-27T08:02:15;94820.63;;;15.34;55.72
73564;BME280;61834;50.196;6.454;2022-09-27T08:04:42;94820.63;;;15.34;55.80
73564;BME280;61834;50.196;6.454;2022-09-27T08:07:12;94814.31;;;15.33;55.69
73564;BME280;61834;50.196;6.454;2022-09-27T08:09:39;94825.34;;;15.33;55.63
73564;BME280;61834;50.196;6.454;2022-09-27T08:12:04;94823.06;;;15.32;55.79
73564;BME280;61834;50.196;6.454;2022-09-27T08:14:30;94822.59;;;15.33;55.65
73564;BME280;61834;50.196;6.454;2022-09-27T08:16:56;94826.59;;;15.32;55.65
73564;BME280;61834;50.196;6.454;2022-09-27T08:19:27;94831.66;;;15.34;55.74
73564;BME280;61834;50.196;6.454;2022-09-27T08:22:13;94821.81;;;15.33;55.69
73564;BME280;61834;50.196;6.454;2022-09-27T08:24:52;94836.84;;;15.32;55.63
73564;BME280;61834;50.196;6.454;2022-09-27T08:27:38;94841.91;;;15.33;55.73
73564;BME280;61834;50.196;6.454;2022-09-27T08:30:17;94839.91;;;15.34;55.82
73564;BME280;61834;50.196;6.454;2022-09-27T08:32:43;94838.38;;;15.33;55.67
73564;BME280;61834;50.196;6.454;2022-09-27T08:35:09;94825.81;;;15.32;55.83
73564;BME280;61834;50.196;6.454;2022-09-27T08:37:34;94830.88;;;15.33;55.93
73564;BME280;61834;50.196;6.454;2022-09-27T08:40:00;94832.09;;;15.32;55.65
73564;BME280;61834;50.196;6.454;2022-09-27T08:45:13;94833.31;;;15.31;55.81
73564;BME280;61834;50.196;6.454;2022-09-27T08:47:48;94835.59;;;15.33;55.81
73564;BME280;61834;50.196;6.454;2022-09-27T08:50:25;94835.59;;;15.33;55.60
73564;BME280;61834;50.196;6.454;2022-09-27T08:57:56;94845.09;;;15.32;55.88
73564;BME280;61834;50.196;6.454;2022-09-27T09:00:24;94854.59;;;15.31;55.47
73564;BME280;61834;50.196;6.454;2022-09-27T09:02:49;94847.53;;;15.30;55.81
73564;BME280;61834;50.196;6.454;2022-09-27T09:05:29;94846.31;;;15.31;55.75
73564;BME280;61834;50.196;6.454;2022-09-27T09:08:05;94849.06;;;15.31;55.78
73564;BME280;61834;50.196;6.454;2022-09-27T09:10:56;94838.81;;;15.31;55.74
73564;BME280;61834;50.196;6.454;2022-09-27T09:30:22;94851.69;;;15.34;55.73
73564;BME280;61834;50.196;6.454;2022-09-27T09:33:12;94843.44;;;15.34;55.71
73564;BME280;61834;50.196;6.454;2022-09-27T09:35:47;94852.03;;;15.36;55.63
73564;BME280;61834;50.196;6.454;2022-09-27T09:38:23;94846.97;;;15.35;55.57
73564;BME280;61834;50.196;6.454;2022-09-27T09:40:57;94833.97;;;15.35;55.74
73564;BME280;61834;50.196;6.454;2022-09-27T09:43:49;94833.97;;;15.35;55.69
73564;BME280;61834;50.196;6.454;2022-09-27T09:46:23;94831.94;;;15.36;55.60
73564;BME280;61834;50.196;6.454;2022-09-27T09:48:56;94830.41;;;15.35;55.67
73564;BME280;61834;50.196;6.454;2022-09-27T09:51:32;94837.03;;;15.37;55.60
73564;BME280;61834;50.196;6.454;2022-09-27T09:56:59;94828.75;;;15.37;55.54
73564;BME280;61834;50.196;6.454;2022-09-27T09:59:33;94829.50;;;15.38;55.61
73564;BME280;61834;50.196;6.454;2022-09-27T10:02:17;94835.81;;;15.38;55.66
73564;BME280;61834;50.196;6.454;2022-09-27T10:04:45;94833.81;;;15.39;55.52
73564;BME280;61834;50.196;6.454;2022-09-27T10:07:11;94828.31;;;15.39;55.56
73564;BME280;61834;50.196;6.454;2022-09-27T10:09:38;94827.53;;;15.38;55.65
73564;BME280;61834;50.196;6.454;2022-09-27T10:12:23;94820.81;;;15.39;55.33
73564;BME280;61834;50.196;6.454;2022-09-27T10:14:50;94833.81;;;15.39;55.53
73564;BME280;61834;50.196;6.454;2022-09-27T10:17:20;94814.53;;;15.39;55.60
73564;BME280;61834;50.196;6.454;2022-09-27T10:19:48;94814.84;;;15.41;55.57
73564;BME280;61834;50.196;6.454;2022-09-27T10:22:43;94813.97;;;15.44;55.54
73564;BME280;61834;50.196;6.454;2022-09-27T10:26:05;94808.75;;;15.46;55.58
73564;BME280;61834;50.196;6.454;2022-09-27T10:28:44;94803.69;;;15.44;55.47
73564;BME280;61834;50.196;6.454;2022-09-27T10:31:13;94809.19;;;15.44;55.39
73564;BME280;61834;50.196;6.454;2022-09-27T10:33:59;94802.16;;;15.43;55.30
73564;BME280;61834;50.196;6.454;2022-09-27T10:36:30;94806.00;;;15.46;55.51
73564;BME280;61834;50.196;6.454;2022-09-27T10:38:59;94803.69;;;15.44;55.48
73564;BME280;61834;50.196;6.454;2022-09-27T10:41:41;94797.41;;;15.44;55.74
73564;BME280;61834;50.196;6.454;2022-09-27T10:46:49;94804.47;;;15.45;55.55
73564;BME280;61834;50.196;6.454;2022-09-27T10:49:36;94805.53;;;15.47;55.52
73564;BME280;61834;50.196;6.454;2022-09-27T10:52:15;94802.78;;;15.47;55.18
73564;BME280;61834;50.196;6.454;2022-09-27T10:54:52;94809.84;;;15.48;55.44
73564;BME280;61834;50.196;6.454;2022-09-27T10:57:20;94798.50;;;15.46;55.40
73564;BME280;61834;50.196;6.454;2022-09-27T11:00:21;94804.00;;;15.46;55.48
73564;BME280;61834;50.196;6.454;2022-09-27T11:03:14;94810.31;;;15.47;55.53
73564;BME280;61834;50.196;6.454;2022-09-27T11:05:40;94803.56;;;15.48;55.36
73564;BME280;61834;50.196;6.454;2022-09-27T11:11:17;94799.28;;;15.47;55.52
73564;BME280;61834;50.196;6.454;2022-09-27T11:14:03;94793.75;;;15.47;55.52
73564;BME280;61834;50.196;6.454;2022-09-27T11:21:51;94793.75;;;15.47;55.45
73564;BME280;61834;50.196;6.454;2022-09-27T11:30:09;94785.03;;;15.48;55.52
73564;BME280;61834;50.196;6.454;2022-09-27T11:33:12;94783.03;;;15.49;55.59
73564;BME280;61834;50.196;6.454;2022-09-27T11:35:51;94791.31;;;15.49;55.60
73564;BME280;61834;50.196;6.454;2022-09-27T11:38:27;94791.31;;;15.49;55.38
73564;BME280;61834;50.196;6.454;2022-09-27T11:47:17;94777.38;;;15.52;55.46
73564;BME280;61834;50.196;6.454;2022-09-27T11:49:58;94774.31;;;15.50;55.50
73564;BME280;61834;50.196;6.454;2022-09-27T11:52:50;94776.63;;;15.52;55.09
73564;BME280;61834;50.196;6.454;2022-09-27T11:55:49;94786.41;;;15.53;55.41
73564;BME280;61834;50.196;6.454;2022-09-27T11:58:50;94771.09;;;15.52;55.46
73564;BME280;61834;50.196;6.454;2022-09-27T12:07:03;94773.53;;;15.50;55.34
73564;BME280;61834;50.196;6.454;2022-09-27T12:09:38;94776.28;;;15.50;55.40
73564;BME280;61834;50.196;6.454;2022-09-27T12:12:12;94777.06;;;15.50;55.55
73564;BME280;61834;50.196;6.454;2022-09-27T12:14:48;94775.38;;;15.53;55.36
73564;BME280;61834;50.196;6.454;2022-09-27T12:17:24;94768.22;;;15.55;55.36
73564;BME280;61834;50.196;6.454;2022-09-27T12:19:57;94758.38;;;15.54;55.25
73564;BME280;61834;50.196;6.454;2022-09-27T12:22:52;94753.63;;;15.55;55.26
73564;BME280;61834;50.196;6.454;2022-09-27T12:25:25;94747.34;;;15.54;55.31
73564;BME280;61834;50.196;6.454;2022-09-27T12:28:33;94740.91;;;15.57;55.37
73564;BME280;61834;50.196;6.454;2022-09-27T12:31:05;94746.00;;;15.59;55.03
73564;BME280;61834;50.196;6.454;2022-09-27T12:33:47;94753.03;;;15.60;55.15
73564;BME280;61834;50.196;6.454;2022-09-27T12:36:17;94755.34;;;15.61;55.20
73564;BME280;61834;50.196;6.454;2022-09-27T12:41:21;94753.81;;;15.60;55.37
73564;BME280;61834;50.196;6.454;2022-09-27T12:44:10;94757.03;;;15.59;55.48
73564;BME280;61834;50.196;6.454;2022-09-27T12:49:30;94753.50;;;15.58;55.34
73564;BME280;61834;50.196;6.454;2022-09-27T12:52:09;94752.72;;;15.58;55.22
73564;BME280;61834;50.196;6.454;2022-09-27T13:00:19;94775.72;;;15.55;55.36
73564;BME280;61834;50.196;6.454;2022-09-27T13:03:01;94765.44;;;15.55;55.36
73564;BME280;61834;50.196;6.454;2022-09-27T13:05:43;94770.19;;;15.55;55.49
73564;BME280;61834;50.196;6.454;2022-09-27T13:11:22;94757.91;;;15.56;55.41
73564;BME280;61834;50.196;6.454;2022-09-27T13:13:54;94762.69;;;15.55;55.38
73564;BME280;61834;50.196;6.454;2022-09-27T13:16:23;94762.97;;;15.57;55.45
73564;BME280;61834;50.196;6.454;2022-09-27T13:18:54;94769.28;;;15.58;55.26
73564;BME280;61834;50.196;6.454;2022-09-27T13:41:50;94777.56;;;15.58;55.45
73564;BME280;61834;50.196;6.454;2022-09-27T13:47:02;94772.50;;;15.56;55.45
73564;BME280;61834;50.196;6.454;2022-09-27T13:49:36;94772.81;;;15.58;55.25
73564;BME280;61834;50.196;6.454;2022-09-27T13:54:53;94776.63;;;15.61;55.37
73564;BME280;61834;50.196;6.454;2022-09-27T14:00:11;94773.13;;;15.60;55.35
73564;BME280;61834;50.196;6.454;2022-09-27T14:03:00;94767.63;;;15.60;55.18
73564;BME280;61834;50.196;6.454;2022-09-27T14:08:22;94773.59;;;15.59;55.43
73564;BME280;61834;50.196;6.454;2022-09-27T14:10:51;94765.75;;;15.57;55.22
73564;BME280;61834;50.196;6.454;2022-09-27T14:13:18;94767.75;;;15.57;55.54
73564;BME280;61834;50.196;6.454;2022-09-27T14:15:53;94774.78;;;15.58;55.21
73564;BME280;61834;50.196;6.454;2022-09-27T14:18:20;94771.25;;;15.57;55.49
73564;BME280;61834;50.196;6.454;2022-09-27T14:20:49;94772.50;;;15.56;55.59
73564;BME280;61834;50.196;6.454;2022-09-27T14:23:49;94789.03;;;15.56;55.51
73564;BME280;61834;50.196;6.454;2022-09-27T14:26:26;94797.31;;;15.56;55.51
73564;BME280;61834;50.196;6.454;2022-09-27T14:28:52;94805.25;;;15.54;55.42
73564;BME280;61834;50.196;6.454;2022-09-27T14:31:25;94808.47;;;15.53;55.42
73564;BME280;61834;50.196;6.454;2022-09-27T14:34:10;94813.22;;;15.52;55.41
73564;BME280;61834;50.196;6.454;2022-09-27T14:36:39;94810.47;;;15.52;55.37
73564;BME280;61834;50.196;6.454;2022-09-27T14:39:31;94812.00;;;15.53;55.40
73564;BME280;61834;50.196;6.454;2022-09-27T14:42:02;94808.47;;;15.53;55.34
73564;BME280;61834;50.196;6.454;2022-09-27T14:44:29;94812.00;;;15.53;55.40
73564;BME280;61834;50.196;6.454;2022-09-27T14:47:08;94808.81;;;15.55;55.21
73564;BME280;61834;50.196;6.454;2022-09-27T14:49:34;94809.56;;;15.55;55.36
73564;BME280;61834;50.196;6.454;2022-09-27T14:51:59;94804.22;;;15.61;55.11
73564;BME280;61834;50.196;6.454;2022-09-27T14:54:27;94802.25;;;15.61;55.06
73564;BME280;61834;50.196;6.454;2022-09-27T14:56:55;94802.56;;;15.63;55.26
73564;BME280;61834;50.196;6.454;2022-09-27T14:59:27;94811.16;;;15.65;55.09
73564;BME280;61834;50.196;6.454;2022-09-27T15:01:58;94796.00;;;15.70;55.02
73564;BME280;61834;50.196;6.454;2022-09-27T15:04:29;94804.28;;;15.70;55.14
73564;BME280;61834;50.196;6.454;2022-09-27T15:06:56;94809.00;;;15.69;55.07
73564;BME280;61834;50.196;6.454;2022-09-27T15:09:23;94798.94;;;15.75;54.88
73564;BME280;61834;50.196;6.454;2022-09-27T15:11:53;94805.38;;;15.81;54.83
73564;BME280;61834;50.196;6.454;2022-09-27T15:14:20;94801.38;;;15.82;54.66
73564;BME280;61834;50.196;6.454;2022-09-27T15:16:47;94808.31;;;15.87;54.47
73564;BME280;61834;50.196;6.454;2022-09-27T15:19:27;94801.28;;;15.95;54.60
73564;BME280;61834;50.196;6.454;2022-09-27T15:21:54;94801.94;;;15.99;54.60
73564;BME280;61834;50.196;6.454;2022-09-27T15:24:37;94803.91;;;15.98;54.63
73564;BME280;61834;50.196;6.454;2022-09-27T15:27:11;94809.88;;;15.97;54.67
73564;BME280;61834;50.196;6.454;2022-09-27T15:29:37;94805.56;;;15.96;54.63
73564;BME280;61834;50.196;6.454;2022-09-27T15:32:05;94806.06;;;16.03;54.60
73564;BME280;61834;50.196;6.454;2022-09-27T15:34:32;94795.19;;;16.09;54.41
73564;BME280;61834;50.196;6.454;2022-09-27T15:37:00;94794.75;;;16.10;54.55
73564;BME280;61834;50.196;6.454;2022-09-27T15:39:40;94794.44;;;16.17;54.67
73564;BME280;61834;50.196;6.454;2022-09-27T15:42:12;94797.19;;;16.17;54.08
73564;BME280;61834;50.196;6.454;2022-09-27T15:52:49;94801.94;;;16.08;54.81
73564;BME280;61834;50.196;6.454;2022-09-27T15:55:23;94794.91;;;16.07;55.01
73564;BME280;61834;50.196;6.454;2022-09-27T15:57:59;94797.34;;;16.05;54.73
73564;BME280;61834;50.196;6.454;2022-09-27T16:00:27;94794.56;;;16.05;54.88
73564;BME280;61834;50.196;6.454;2022-09-27T16:02:54;94785.97;;;16.03;55.09
73564;BME280;61834;50.196;6.454;2022-09-27T16:05:20;94788.75;;;16.03;54.93